Southern Ontario METAR Reports

CYSN - St.Catharines
Updated: 09/19/2017 4:00pm
Mostly cloudy
Mostly cloudy
 Wind from NNE
Wind: NNE 11 km/h
Temperature: 25°C
Dew Point: 20°C
Humidity: 74%
Barometer: 1014.9 hPa
Clouds: Mostly cloudy
Visibility: 16 km
Cloud details: Few Clouds 914 m
Mostly cloudy 6096 m
2017/09/19 20:00 CYSN 192000Z 02006KT 10SM FEW030 BKN200 25/20 A2997 RMK SC2CI5 SLP148 DENSITY ALT 1500FT
CYHM - Hamilton
Updated: 09/19/2017 4:00pm
Partly cloudy
Partly cloudy
 Wind from E
Wind: E 9 km/h
Temperature: 25°C
Dew Point: 20°C
Humidity: 74%
Barometer: 1015.2 hPa
Clouds: Partly cloudy
Visibility: 24 km
Cloud details: Few Clouds 792 m
Few Clouds 1097 m
Few Clouds 4572 m
Partly cloudy 7010 m
2017/09/19 20:00 CYHM 192000Z 08005KT 030V100 15SM FEW026 FEW036 FEW150 SCT230 25/20 A2998 RMK CU1SC1AC1CI2 AC TR SLP151 DENSITY ALT 2100FT
 
CYYZ - Toronto
Updated: 09/19/2017 4:00pm
Mostly cloudy
Mostly cloudy
 Wind from SE
Wind: SE 15 km/h
Temperature: 26°C
Dew Point: 19°C
Humidity: 65%
Barometer: 1015.2 hPa
Clouds: Mostly cloudy
Visibility: 24 km
Cloud details: Few Clouds 1219 m
Partly cloudy 5486 m
Mostly cloudy 7620 m
2017/09/19 20:00 CYYZ 192000Z 13008KT 15SM FEW040TCU SCT180 BKN250 26/19 A2998 RMK TCU2AC1CI3 TCU W-E SLP151 DENSITY ALT 1900FT
CYKF - Waterloo
Updated: 09/19/2017 4:32pm
Partly cloudy
Partly cloudy
 Wind from SE
Wind: SE 9 km/h
Temperature: 24°C
Dew Point: 19°C
Humidity: 74%
Barometer: 1015.6 hPa
Clouds: Partly cloudy
Visibility: 14 km
Cloud details: Few Clouds 975 m
Partly cloudy 4267 m
2017/09/19 20:32 CYKF 192032Z AUTO 13005KT 9SM FEW032 SCT140 24/19 A2999 RMK LTNG DIST S SW W SLP153 DENSITY ALT 2200FT
 
CYXU - London
Updated: 09/19/2017 4:00pm
Overcast
Overcast
 Wind from WNW
Wind: WNW 11 km/h
Temperature: 24°C
Dew Point: 19°C
Humidity: 74%
Barometer: 1015.6 hPa
Clouds: Overcast
Visibility: 24 km
Cloud details: Partly cloudy 610 m
Overcast 3353 m
2017/09/19 20:00 CYXU 192000Z 30006KT 250V310 15SM SCT020 OVC110 24/19 A2999 RMK SC3AC5 SLP153 DENSITY ALT 2100FT
CYQG - Windsor
Updated: 09/19/2017 4:00pm
Light rain, Showers, Mist, Mostly cloudy
Light rain, Showers, Mist, Mostly cloudy
 Wind from ESE
Wind: ESE 7 km/h
Temperature: 22°C
Dew Point: 21°C
Humidity: 94%
Barometer: 1014.6 hPa
Summary: Light rain, Showers, Mist
Clouds: Mostly cloudy
Visibility: 10 km
Cloud details: Mostly cloudy 366 m
Mostly cloudy 2042 m
2017/09/19 20:00 CYQG 192000Z 11004KT 6SM -SHRA BR BKN012CB BKN067 22/21 A2996 RMK CB6AC1 SLP144 DENSITY ALT 1600FT
 
CYZR - Sarnia
Updated: 09/19/2017 4:00pm
Mostly cloudy
Mostly cloudy
 Wind from ESE
Wind: ESE 6 km/h
Temperature: 22°C
Dew Point: 19°C
Humidity: 83%
Barometer: 1014.6 hPa
Clouds: Mostly cloudy
Visibility: 14 km
Cloud details: Few Clouds 1219 m
Partly cloudy 3962 m
Mostly cloudy 5486 m
2017/09/19 20:00 CYZR 192000Z AUTO 12003KT 090V230 9SM FEW040 SCT130 BKN180 22/19 A2996 RMK SLP147 DENSITY ALT 1400FT
CYVV - Wiarton
Updated: 09/19/2017 4:00pm
Overcast
Overcast
 Wind from NNE
Wind: NNE 13 km/h
Temperature: 20°C
Dew Point: 20°C
Humidity: 100%
Barometer: 1016.3 hPa
Clouds: Overcast
Visibility: 24 km
Cloud details: Overcast 457 m
2017/09/19 20:00 CYVV 192000Z 03007KT 15SM OVC015 20/20 A3001 RMK SC8 SLP164 DENSITY ALT 1400FT
 
CYPQ - Peterborough
Updated: 09/19/2017 4:00pm
Clear
Clear
 Wind from E
Wind: E 7 km/h
Temperature: 26°C
Dew Point: 20°C
Humidity: 70%
Barometer: 1015.6 hPa
Clouds: Clear
Visibility: 14 km
2017/09/19 20:00 CYPQ 192000Z AUTO 09004KT 020V110 9SM CLR 26/20 A2999 RMK SLP157 DENSITY ALT 1900FT
CYTR - Trenton
Updated: 09/19/2017 4:00pm
Mostly cloudy
Mostly cloudy
 Wind from SSE
Wind: SSE 7 km/h
Temperature: 26°C
Dew Point: 19°C
Humidity: 65%
Barometer: 1015.6 hPa
Clouds: Mostly cloudy
Visibility: 24 km
Cloud details: Few Clouds 792 m
Mostly cloudy 6096 m
2017/09/19 20:00 CYTR 192000Z 16004KT 15SM FEW026 BKN200 26/19 A2999 RMK CU1CI7 TCU DIST N SLP155